ADDS METAR Data INFO
IDs: Format: Raw Decoded Include TAF

Data at: 1717 UTC 23 Oct 2017

KHOU 231653Z 00000KT 10SM CLR 23/07 A3015 RMK AO2 SLP214 T02330072